RUK5DM EGSS-EGPH
Flight info
| Callsign | RUK5DM |
|---|---|
| Flight time | 0h 57m |
| Altitude | 32000 |
| Route | UTAVA Q75 BUZAD T420 TNT UN57 POL UN601 RIBEL DCT INPIP |
| Aircraft | B738/M-SDE2E3FGHIRWXY/LB1 |
Departure
| Time | 2026-04-21 18:23 |
|---|---|
| Airport | London Stansted Airport (EGSS) |
Arrival
| Time | 2026-04-21 19:21 |
|---|---|
| Airport | Edinburgh Airport (EGPH) |
| Time | Latitude | Longitude | Altitude | Speed | Heading |
|---|---|---|---|---|---|
| 2026-04-21 17:58 | 51.89057 | 0.25662 | 351 ft | 0 kts | 43° |
| 2026-04-21 18:11 | 51.89054 | 0.25657 | 348 ft | 2 kts | 43° |
| 2026-04-21 18:12 | 51.89042 | 0.25639 | 354 ft | 2 kts | 43° |
| 2026-04-21 18:12 | 51.89030 | 0.25620 | 354 ft | 2 kts | 37° |
| 2026-04-21 18:12 | 51.89015 | 0.25617 | 353 ft | 2 kts | 329° |
| 2026-04-21 18:12 | 51.89002 | 0.25634 | 358 ft | 2 kts | 315° |
| 2026-04-21 18:13 | 51.88997 | 0.25641 | 358 ft | 0 kts | 313° |
| 2026-04-21 18:14 | 51.89003 | 0.25630 | 355 ft | 4 kts | 313° |
| 2026-04-21 18:14 | 51.89043 | 0.25562 | 348 ft | 11 kts | 313° |
| 2026-04-21 18:15 | 51.89099 | 0.25465 | 352 ft | 12 kts | 313° |
| 2026-04-21 18:15 | 51.89155 | 0.25368 | 353 ft | 12 kts | 313° |
| 2026-04-21 18:15 | 51.89160 | 0.25253 | 355 ft | 13 kts | 226° |
| 2026-04-21 18:15 | 51.89069 | 0.25117 | 348 ft | 23 kts | 223° |
| 2026-04-21 18:16 | 51.88939 | 0.24921 | 348 ft | 27 kts | 223° |
| 2026-04-21 18:16 | 51.88807 | 0.24724 | 356 ft | 25 kts | 223° |
| 2026-04-21 18:16 | 51.88685 | 0.24541 | 352 ft | 23 kts | 223° |
| 2026-04-21 18:16 | 51.88570 | 0.24368 | 348 ft | 22 kts | 223° |
| 2026-04-21 18:17 | 51.88457 | 0.24198 | 356 ft | 22 kts | 223° |
| 2026-04-21 18:17 | 51.88333 | 0.24012 | 351 ft | 26 kts | 223° |
| 2026-04-21 18:17 | 51.88193 | 0.23801 | 350 ft | 27 kts | 223° |
| 2026-04-21 18:17 | 51.88057 | 0.23599 | 351 ft | 26 kts | 223° |
| 2026-04-21 18:18 | 51.87931 | 0.23409 | 348 ft | 24 kts | 223° |
| 2026-04-21 18:18 | 51.87818 | 0.23240 | 348 ft | 19 kts | 223° |
| 2026-04-21 18:18 | 51.87737 | 0.23116 | 351 ft | 12 kts | 230° |
| 2026-04-21 18:18 | 51.87752 | 0.22997 | 352 ft | 12 kts | 313° |
| 2026-04-21 18:19 | 51.87808 | 0.22901 | 348 ft | 12 kts | 313° |
| 2026-04-21 18:19 | 51.87853 | 0.22822 | 347 ft | 7 kts | 313° |
| 2026-04-21 18:19 | 51.87871 | 0.22792 | 348 ft | 0 kts | 312° |
| 2026-04-21 18:21 | 51.87879 | 0.22776 | 348 ft | 6 kts | 312° |
| 2026-04-21 18:22 | 51.87921 | 0.22703 | 340 ft | 8 kts | 313° |
| 2026-04-21 18:22 | 51.87947 | 0.22666 | 351 ft | 4 kts | 340° |
| 2026-04-21 18:22 | 51.87971 | 0.22685 | 338 ft | 5 kts | 41° |
| 2026-04-21 18:22 | 51.87980 | 0.22699 | 337 ft | 2 kts | 44° |
| 2026-04-21 18:23 | 51.88018 | 0.22757 | 338 ft | 25 kts | 43° |
| 2026-04-21 18:23 | 51.88341 | 0.23242 | 337 ft | 100 kts | 43° |
| 2026-04-21 18:23 | 51.89003 | 0.24230 | 419 ft | 150 kts | 44° |
| 2026-04-21 18:23 | 51.89775 | 0.25343 | 1366 ft | 146 kts | 44° |
| 2026-04-21 18:24 | 51.90549 | 0.26457 | 2175 ft | 154 kts | 45° |
| 2026-04-21 18:24 | 51.91396 | 0.27720 | 2668 ft | 178 kts | 45° |
| 2026-04-21 18:24 | 51.92423 | 0.29093 | 2910 ft | 206 kts | 31° |
| 2026-04-21 18:24 | 51.93907 | 0.29595 | 3230 ft | 237 kts | 2° |
| 2026-04-21 18:25 | 51.95608 | 0.29061 | 3731 ft | 261 kts | 344° |
| 2026-04-21 18:25 | 51.97094 | 0.27283 | 4574 ft | 275 kts | 308° |
| 2026-04-21 18:25 | 51.97787 | 0.24377 | 5475 ft | 282 kts | 281° |
| 2026-04-21 18:25 | 51.98008 | 0.21168 | 6268 ft | 290 kts | 277° |
| 2026-04-21 18:26 | 51.98220 | 0.17904 | 7121 ft | 292 kts | 274° |
| 2026-04-21 18:26 | 51.98324 | 0.14601 | 7966 ft | 295 kts | 274° |
| 2026-04-21 18:26 | 51.98526 | 0.11263 | 8769 ft | 299 kts | 278° |
| 2026-04-21 18:26 | 51.98823 | 0.07903 | 9595 ft | 303 kts | 279° |
| 2026-04-21 18:27 | 51.98956 | 0.04488 | 10403 ft | 306 kts | 265° |
| 2026-04-21 18:27 | 51.98707 | 0.00991 | 10842 ft | 323 kts | 261° |
| 2026-04-21 18:27 | 51.98366 | -0.02751 | 11046 ft | 346 kts | 261° |
| 2026-04-21 18:27 | 51.98028 | -0.06683 | 11564 ft | 357 kts | 262° |
| 2026-04-21 18:28 | 51.97701 | -0.10701 | 12345 ft | 359 kts | 263° |
| 2026-04-21 18:28 | 51.97387 | -0.14730 | 13179 ft | 362 kts | 263° |
| 2026-04-21 18:28 | 51.97075 | -0.18805 | 13949 ft | 366 kts | 263° |
| 2026-04-21 18:28 | 51.96762 | -0.22901 | 14738 ft | 369 kts | 263° |
| 2026-04-21 18:29 | 51.96443 | -0.27040 | 15495 ft | 372 kts | 263° |
| 2026-04-21 18:29 | 51.96119 | -0.31220 | 16259 ft | 375 kts | 263° |
| 2026-04-21 18:29 | 51.95791 | -0.35434 | 17032 ft | 378 kts | 263° |
| 2026-04-21 18:29 | 51.95459 | -0.39678 | 17798 ft | 382 kts | 263° |
| 2026-04-21 18:30 | 51.95121 | -0.43961 | 18582 ft | 384 kts | 263° |
| 2026-04-21 18:30 | 51.94811 | -0.48271 | 19298 ft | 384 kts | 270° |
| 2026-04-21 18:30 | 51.95160 | -0.52475 | 20203 ft | 373 kts | 291° |
| 2026-04-21 18:30 | 51.96319 | -0.56136 | 21046 ft | 367 kts | 307° |
| 2026-04-21 18:31 | 51.98110 | -0.59124 | 21639 ft | 370 kts | 324° |
| 2026-04-21 18:31 | 52.00280 | -0.61384 | 22327 ft | 371 kts | 329° |
| 2026-04-21 18:31 | 52.02508 | -0.63498 | 23078 ft | 370 kts | 329° |
| 2026-04-21 18:31 | 52.04734 | -0.65589 | 23800 ft | 370 kts | 329° |
| 2026-04-21 18:32 | 52.06958 | -0.67714 | 24372 ft | 371 kts | 328° |
| 2026-04-21 18:32 | 52.09178 | -0.69872 | 24890 ft | 373 kts | 328° |
| 2026-04-21 18:32 | 52.11403 | -0.72057 | 25402 ft | 374 kts | 328° |
| 2026-04-21 18:32 | 52.13633 | -0.74255 | 25925 ft | 375 kts | 327° |
| 2026-04-21 18:33 | 52.15871 | -0.76465 | 26455 ft | 376 kts | 327° |
| 2026-04-21 18:33 | 52.18097 | -0.78665 | 27133 ft | 372 kts | 327° |
| 2026-04-21 18:33 | 52.20291 | -0.80833 | 27921 ft | 366 kts | 327° |
| 2026-04-21 18:33 | 52.22449 | -0.82968 | 28707 ft | 361 kts | 326° |
| 2026-04-21 18:34 | 52.24583 | -0.85082 | 29395 ft | 357 kts | 326° |
| 2026-04-21 18:34 | 52.26696 | -0.87179 | 30073 ft | 354 kts | 326° |
| 2026-04-21 18:34 | 52.28082 | -0.88555 | 30512 ft | 351 kts | 326° |
| 2026-04-21 18:34 | 52.30162 | -0.90622 | 31020 ft | 350 kts | 326° |
| 2026-04-21 18:35 | 52.32241 | -0.92692 | 31417 ft | 351 kts | 326° |
| 2026-04-21 18:35 | 52.35015 | -0.95458 | 31845 ft | 355 kts | 326° |
| 2026-04-21 18:35 | 52.37129 | -0.97568 | 32172 ft | 357 kts | 326° |
| 2026-04-21 18:35 | 52.39255 | -0.99692 | 32348 ft | 360 kts | 326° |
| 2026-04-21 18:36 | 52.40703 | -1.01140 | 32338 ft | 360 kts | 326° |
| 2026-04-21 18:36 | 52.44948 | -1.05388 | 32310 ft | 356 kts | 326° |
| 2026-04-21 18:37 | 52.49181 | -1.09637 | 32292 ft | 357 kts | 326° |
| 2026-04-21 18:37 | 52.53426 | -1.13907 | 32264 ft | 358 kts | 326° |
| 2026-04-21 18:38 | 52.57649 | -1.18164 | 32240 ft | 359 kts | 326° |
| 2026-04-21 18:38 | 52.61905 | -1.22462 | 32218 ft | 359 kts | 326° |
| 2026-04-21 18:39 | 52.66158 | -1.26766 | 32209 ft | 359 kts | 326° |
| 2026-04-21 18:39 | 52.70403 | -1.31071 | 32213 ft | 358 kts | 326° |
| 2026-04-21 18:40 | 52.74647 | -1.35390 | 32375 ft | 358 kts | 326° |
| 2026-04-21 18:40 | 52.78890 | -1.39720 | 32376 ft | 358 kts | 326° |
| 2026-04-21 18:41 | 52.83132 | -1.44058 | 32372 ft | 359 kts | 326° |
| 2026-04-21 18:41 | 52.87372 | -1.48404 | 32377 ft | 359 kts | 326° |
| 2026-04-21 18:42 | 52.91610 | -1.52759 | 32379 ft | 358 kts | 326° |
| 2026-04-21 18:42 | 52.95846 | -1.57123 | 32377 ft | 359 kts | 326° |
| 2026-04-21 18:43 | 53.00084 | -1.61496 | 32378 ft | 359 kts | 326° |
| 2026-04-21 18:43 | 53.04326 | -1.65879 | 32381 ft | 359 kts | 327° |
| 2026-04-21 18:44 | 53.08910 | -1.69277 | 32392 ft | 363 kts | 336° |
| 2026-04-21 18:44 | 53.13661 | -1.72168 | 32388 ft | 363 kts | 336° |
| 2026-04-21 18:45 | 53.18405 | -1.75071 | 32387 ft | 363 kts | 336° |
| 2026-04-21 18:45 | 53.23144 | -1.78004 | 32389 ft | 363 kts | 336° |
| 2026-04-21 18:46 | 53.27888 | -1.80958 | 32383 ft | 364 kts | 336° |
| 2026-04-21 18:46 | 53.32634 | -1.83925 | 32386 ft | 365 kts | 336° |
| 2026-04-21 18:47 | 53.37385 | -1.86901 | 32383 ft | 365 kts | 336° |
| 2026-04-21 18:47 | 53.42138 | -1.89886 | 32378 ft | 365 kts | 336° |
| 2026-04-21 18:48 | 53.46897 | -1.92882 | 32385 ft | 365 kts | 336° |
| 2026-04-21 18:48 | 53.51653 | -1.95884 | 32392 ft | 366 kts | 336° |
| 2026-04-21 18:49 | 53.56430 | -1.98906 | 32395 ft | 367 kts | 336° |
| 2026-04-21 18:49 | 53.60403 | -2.01425 | 32390 ft | 367 kts | 336° |
| 2026-04-21 18:50 | 53.65994 | -2.04979 | 32406 ft | 367 kts | 336° |
| 2026-04-21 18:50 | 53.70780 | -2.08029 | 32402 ft | 368 kts | 336° |
| 2026-04-21 18:51 | 53.75563 | -2.11103 | 32407 ft | 367 kts | 335° |
| 2026-04-21 18:51 | 53.80303 | -2.14344 | 32410 ft | 368 kts | 335° |
| 2026-04-21 18:52 | 53.85049 | -2.17600 | 32410 ft | 369 kts | 335° |
| 2026-04-21 18:52 | 53.89775 | -2.20833 | 32404 ft | 369 kts | 335° |
| 2026-04-21 18:53 | 53.94539 | -2.24099 | 32401 ft | 370 kts | 335° |
| 2026-04-21 18:53 | 53.99306 | -2.27375 | 32424 ft | 370 kts | 335° |
| 2026-04-21 18:54 | 54.04085 | -2.30668 | 32417 ft | 371 kts | 335° |
| 2026-04-21 18:54 | 54.08863 | -2.33968 | 32435 ft | 371 kts | 335° |
| 2026-04-21 18:55 | 54.12876 | -2.36746 | 32416 ft | 372 kts | 335° |
| 2026-04-21 18:55 | 54.18459 | -2.40621 | 32428 ft | 373 kts | 335° |
| 2026-04-21 18:56 | 54.23282 | -2.43978 | 32427 ft | 375 kts | 335° |
| 2026-04-21 18:56 | 54.28126 | -2.47358 | 32444 ft | 377 kts | 335° |
| 2026-04-21 18:57 | 54.32992 | -2.50761 | 32445 ft | 378 kts | 335° |
| 2026-04-21 18:57 | 54.37865 | -2.54180 | 32428 ft | 379 kts | 335° |
| 2026-04-21 18:58 | 54.42726 | -2.57596 | 32427 ft | 372 kts | 335° |
| 2026-04-21 18:58 | 54.47472 | -2.60939 | 32430 ft | 367 kts | 335° |
| 2026-04-21 18:59 | 54.52220 | -2.64297 | 32155 ft | 369 kts | 335° |
| 2026-04-21 18:59 | 54.54569 | -2.65959 | 31857 ft | 363 kts | 335° |
| 2026-04-21 18:59 | 54.56896 | -2.67608 | 31536 ft | 359 kts | 335° |
| 2026-04-21 18:59 | 54.59200 | -2.69244 | 31177 ft | 357 kts | 335° |
| 2026-04-21 19:00 | 54.61488 | -2.70870 | 30813 ft | 355 kts | 335° |
| 2026-04-21 19:00 | 54.63760 | -2.72486 | 30454 ft | 352 kts | 335° |
| 2026-04-21 19:00 | 54.66020 | -2.74097 | 30028 ft | 350 kts | 335° |
| 2026-04-21 19:00 | 54.68257 | -2.75693 | 29655 ft | 346 kts | 335° |
| 2026-04-21 19:01 | 54.70472 | -2.77275 | 29270 ft | 343 kts | 335° |
| 2026-04-21 19:01 | 54.72669 | -2.78846 | 28904 ft | 340 kts | 335° |
| 2026-04-21 19:01 | 54.74850 | -2.80407 | 28529 ft | 338 kts | 335° |
| 2026-04-21 19:01 | 54.77011 | -2.81956 | 28170 ft | 335 kts | 336° |
| 2026-04-21 19:02 | 54.79158 | -2.83497 | 27801 ft | 333 kts | 335° |
| 2026-04-21 19:02 | 54.81265 | -2.85011 | 27454 ft | 331 kts | 336° |
| 2026-04-21 19:02 | 54.83393 | -2.86541 | 27106 ft | 331 kts | 336° |
| 2026-04-21 19:02 | 54.85516 | -2.88070 | 26757 ft | 331 kts | 336° |
| 2026-04-21 19:03 | 54.87657 | -2.89614 | 26420 ft | 337 kts | 336° |
| 2026-04-21 19:03 | 54.89871 | -2.91213 | 25949 ft | 351 kts | 337° |
| 2026-04-21 19:03 | 54.92144 | -2.92855 | 25445 ft | 356 kts | 337° |
| 2026-04-21 19:03 | 54.94444 | -2.94519 | 24959 ft | 360 kts | 338° |
| 2026-04-21 19:04 | 54.96769 | -2.96202 | 24464 ft | 364 kts | 338° |
| 2026-04-21 19:04 | 54.99114 | -2.97902 | 23946 ft | 367 kts | 338° |
| 2026-04-21 19:04 | 55.01476 | -2.99616 | 23347 ft | 367 kts | 338° |
| 2026-04-21 19:04 | 55.03811 | -3.01314 | 22823 ft | 360 kts | 339° |
| 2026-04-21 19:05 | 55.06095 | -3.02978 | 22324 ft | 353 kts | 339° |
| 2026-04-21 19:05 | 55.08338 | -3.04614 | 21839 ft | 347 kts | 339° |
| 2026-04-21 19:05 | 55.10546 | -3.06224 | 21358 ft | 341 kts | 339° |
| 2026-04-21 19:05 | 55.12725 | -3.07816 | 20895 ft | 338 kts | 339° |
| 2026-04-21 19:06 | 55.14893 | -3.09400 | 20448 ft | 339 kts | 339° |
| 2026-04-21 19:06 | 55.17087 | -3.11006 | 19924 ft | 344 kts | 339° |
| 2026-04-21 19:06 | 55.19308 | -3.12635 | 19409 ft | 348 kts | 339° |
| 2026-04-21 19:06 | 55.21538 | -3.14273 | 18876 ft | 346 kts | 339° |
| 2026-04-21 19:07 | 55.23748 | -3.15898 | 18275 ft | 342 kts | 339° |
| 2026-04-21 19:07 | 55.25862 | -3.17756 | 17710 ft | 339 kts | 332° |
| 2026-04-21 19:07 | 55.27855 | -3.19902 | 17233 ft | 333 kts | 330° |
| 2026-04-21 19:07 | 55.29791 | -3.22064 | 16790 ft | 326 kts | 330° |
| 2026-04-21 19:08 | 55.31696 | -3.24214 | 16411 ft | 325 kts | 329° |
| 2026-04-21 19:08 | 55.33596 | -3.26369 | 16030 ft | 325 kts | 329° |
| 2026-04-21 19:08 | 55.35493 | -3.28534 | 15659 ft | 325 kts | 329° |
| 2026-04-21 19:08 | 55.37387 | -3.30705 | 15285 ft | 325 kts | 329° |
| 2026-04-21 19:09 | 55.39276 | -3.32880 | 14904 ft | 324 kts | 329° |
| 2026-04-21 19:09 | 55.41159 | -3.35054 | 14556 ft | 324 kts | 329° |
| 2026-04-21 19:09 | 55.43039 | -3.37227 | 14181 ft | 323 kts | 329° |
| 2026-04-21 19:09 | 55.44899 | -3.39384 | 13727 ft | 317 kts | 329° |
| 2026-04-21 19:10 | 55.46719 | -3.41501 | 13290 ft | 310 kts | 329° |
| 2026-04-21 19:10 | 55.48496 | -3.43579 | 12861 ft | 304 kts | 329° |
| 2026-04-21 19:10 | 55.50241 | -3.45629 | 12396 ft | 300 kts | 329° |
| 2026-04-21 19:10 | 55.51972 | -3.47669 | 11942 ft | 298 kts | 329° |
| 2026-04-21 19:11 | 55.53683 | -3.49693 | 11491 ft | 295 kts | 329° |
| 2026-04-21 19:11 | 55.55359 | -3.51679 | 11035 ft | 293 kts | 329° |
| 2026-04-21 19:11 | 55.57040 | -3.53678 | 10588 ft | 290 kts | 329° |
| 2026-04-21 19:11 | 55.58705 | -3.55666 | 10134 ft | 288 kts | 329° |
| 2026-04-21 19:12 | 55.59829 | -3.57013 | 9820 ft | 291 kts | 329° |
| 2026-04-21 19:12 | 55.62068 | -3.59692 | 9201 ft | 296 kts | 329° |
| 2026-04-21 19:12 | 55.63783 | -3.61742 | 8742 ft | 299 kts | 329° |
| 2026-04-21 19:12 | 55.65515 | -3.63812 | 8279 ft | 302 kts | 329° |
| 2026-04-21 19:13 | 55.67247 | -3.65884 | 7813 ft | 298 kts | 329° |
| 2026-04-21 19:13 | 55.68951 | -3.67928 | 7366 ft | 293 kts | 329° |
| 2026-04-21 19:13 | 55.70625 | -3.69938 | 6919 ft | 288 kts | 329° |
| 2026-04-21 19:13 | 55.72272 | -3.71919 | 6445 ft | 284 kts | 329° |
| 2026-04-21 19:14 | 55.73896 | -3.73883 | 5970 ft | 281 kts | 329° |
| 2026-04-21 19:14 | 55.75499 | -3.75835 | 5543 ft | 280 kts | 329° |
| 2026-04-21 19:14 | 55.77105 | -3.77794 | 5160 ft | 281 kts | 330° |
| 2026-04-21 19:14 | 55.78867 | -3.79086 | 4776 ft | 270 kts | 0° |
| 2026-04-21 19:15 | 55.80613 | -3.78483 | 4548 ft | 247 kts | 35° |
| 2026-04-21 19:15 | 55.81748 | -3.76484 | 4465 ft | 220 kts | 58° |
| 2026-04-21 19:15 | 55.82544 | -3.74281 | 4349 ft | 205 kts | 62° |
| 2026-04-21 19:15 | 55.83255 | -3.72175 | 4233 ft | 193 kts | 62° |
| 2026-04-21 19:16 | 55.83918 | -3.70189 | 4133 ft | 180 kts | 62° |
| 2026-04-21 19:16 | 55.84534 | -3.68346 | 4055 ft | 173 kts | 63° |
| 2026-04-21 19:16 | 55.85149 | -3.66506 | 3847 ft | 172 kts | 63° |
| 2026-04-21 19:16 | 55.85759 | -3.64683 | 3624 ft | 170 kts | 62° |
| 2026-04-21 19:17 | 55.86966 | -3.61079 | 3125 ft | 169 kts | 62° |
| 2026-04-21 19:17 | 55.87564 | -3.59285 | 2892 ft | 168 kts | 62° |
| 2026-04-21 19:17 | 55.88162 | -3.57503 | 2637 ft | 167 kts | 62° |
| 2026-04-21 19:18 | 55.88766 | -3.55736 | 2413 ft | 167 kts | 61° |
| 2026-04-21 19:18 | 55.89365 | -3.53970 | 2174 ft | 165 kts | 61° |
| 2026-04-21 19:18 | 55.89938 | -3.52273 | 1947 ft | 154 kts | 61° |
| 2026-04-21 19:18 | 55.90448 | -3.50743 | 1792 ft | 133 kts | 61° |
| 2026-04-21 19:19 | 55.90924 | -3.49316 | 1587 ft | 134 kts | 60° |
| 2026-04-21 19:19 | 55.91405 | -3.47884 | 1381 ft | 135 kts | 60° |
| 2026-04-21 19:19 | 55.91886 | -3.46463 | 1207 ft | 133 kts | 60° |
| 2026-04-21 19:19 | 55.92361 | -3.45052 | 1017 ft | 132 kts | 60° |
| 2026-04-21 19:20 | 55.92833 | -3.43672 | 821 ft | 133 kts | 60° |
| 2026-04-21 19:20 | 55.93309 | -3.42245 | 652 ft | 132 kts | 60° |
| 2026-04-21 19:20 | 55.93775 | -3.40862 | 457 ft | 131 kts | 60° |
| 2026-04-21 19:20 | 55.94258 | -3.39447 | 255 ft | 131 kts | 60° |
| 2026-04-21 19:21 | 55.94718 | -3.38090 | 114 ft | 124 kts | 59° |
| 2026-04-21 19:21 | 55.95042 | -3.37123 | 111 ft | 59 kts | 58° |
| 2026-04-21 19:21 | 55.95176 | -3.36730 | 112 ft | 30 kts | 58° |
| 2026-04-21 19:21 | 55.95259 | -3.36484 | 111 ft | 12 kts | 69° |
| 2026-04-21 19:22 | 55.95215 | -3.36375 | 113 ft | 10 kts | 149° |
| 2026-04-21 19:22 | 55.95179 | -3.36336 | 114 ft | 0 kts | 148° |
| 2026-04-21 19:24 | 55.95167 | -3.36324 | 113 ft | 6 kts | 148° |
| 2026-04-21 19:24 | 55.95135 | -3.36222 | 113 ft | 12 kts | 109° |
| 2026-04-21 19:24 | 55.95109 | -3.36083 | 113 ft | 12 kts | 108° |
| 2026-04-21 19:24 | 55.95081 | -3.35952 | 112 ft | 10 kts | 118° |
| 2026-04-21 19:25 | 55.95049 | -3.35853 | 112 ft | 9 kts | 124° |
| 2026-04-21 19:25 | 55.95000 | -3.35846 | 115 ft | 6 kts | 205° |
| 2026-04-21 19:25 | 55.94960 | -3.35862 | 115 ft | 6 kts | 175° |
| 2026-04-21 19:25 | 55.94926 | -3.35828 | 112 ft | 6 kts | 131° |
| 2026-04-21 19:26 | 55.94890 | -3.35829 | 114 ft | 6 kts | 211° |
| 2026-04-21 19:26 | 55.94859 | -3.35861 | 114 ft | 2 kts | 209° |
| 2026-04-21 19:26 | 55.94848 | -3.35871 | 115 ft | 1 kts | 208° |
| 2026-04-21 19:26 | 55.94846 | -3.35874 | 115 ft | 0 kts | 208° |